sensor_id;sensor_type;location;lat;lon;timestamp;pressure;altitude;pressure_sealevel;temperature;humidity
50434;BME280;36361;38.954;-9.002;2022-07-09T00:01:00;100903.44;;;28.03;25.88
50434;BME280;36361;38.954;-9.002;2022-07-09T00:02:01;100908.22;;;28.03;26.86
50434;BME280;36361;38.954;-9.002;2022-07-09T00:03:01;100911.34;;;28.01;25.77
50434;BME280;36361;38.954;-9.002;2022-07-09T00:04:02;100903.44;;;28.03;26.66
50434;BME280;36361;38.954;-9.002;2022-07-09T00:05:04;100901.16;;;28.14;26.20
50434;BME280;36361;38.954;-9.002;2022-07-09T00:06:05;100898.88;;;28.33;23.82
50434;BME280;36361;38.954;-9.002;2022-07-09T00:07:06;100903.16;;;28.48;21.94
50434;BME280;36361;38.954;-9.002;2022-07-09T00:08:06;100907.25;;;28.68;22.68
50434;BME280;36361;38.954;-9.002;2022-07-09T00:09:07;100901.66;;;28.51;24.96
50434;BME280;36361;38.954;-9.002;2022-07-09T00:10:08;100910.59;;;28.36;26.62
50434;BME280;36361;38.954;-9.002;2022-07-09T00:11:09;100902.81;;;28.24;26.78
50434;BME280;36361;38.954;-9.002;2022-07-09T00:12:10;100901.16;;;28.23;24.72
50434;BME280;36361;38.954;-9.002;2022-07-09T00:13:11;100906.59;;;28.19;24.84
50434;BME280;36361;38.954;-9.002;2022-07-09T00:14:11;100901.34;;;28.18;26.69
50434;BME280;36361;38.954;-9.002;2022-07-09T00:15:12;100903.31;;;28.09;27.14
50434;BME280;36361;38.954;-9.002;2022-07-09T00:16:13;100898.03;;;28.16;24.09
50434;BME280;36361;38.954;-9.002;2022-07-09T00:17:13;100900.00;;;28.24;23.79
50434;BME280;36361;38.954;-9.002;2022-07-09T00:18:14;100902.81;;;28.24;24.98
50434;BME280;36361;38.954;-9.002;2022-07-09T00:19:15;100897.72;;;28.26;26.73
50434;BME280;36361;38.954;-9.002;2022-07-09T00:20:15;100895.56;;;28.23;28.13
50434;BME280;36361;38.954;-9.002;2022-07-09T00:21:16;100903.59;;;28.07;28.19
50434;BME280;36361;38.954;-9.002;2022-07-09T00:22:17;100888.97;;;28.01;27.65
50434;BME280;36361;38.954;-9.002;2022-07-09T00:23:18;100891.75;;;27.93;28.32
50434;BME280;36361;38.954;-9.002;2022-07-09T00:24:19;100894.06;;;27.91;26.88
50434;BME280;36361;38.954;-9.002;2022-07-09T00:25:20;100893.25;;;27.90;28.32
50434;BME280;36361;38.954;-9.002;2022-07-09T00:26:21;100889.44;;;27.86;28.32
50434;BME280;36361;38.954;-9.002;2022-07-09T00:27:21;100889.13;;;27.96;25.04
50434;BME280;36361;38.954;-9.002;2022-07-09T00:28:22;100890.94;;;27.92;26.51
50434;BME280;36361;38.954;-9.002;2022-07-09T00:29:23;100894.56;;;28.01;22.47
50434;BME280;36361;38.954;-9.002;2022-07-09T00:30:24;100891.59;;;28.06;27.96
50434;BME280;36361;38.954;-9.002;2022-07-09T00:31:25;100896.22;;;28.20;25.31
50434;BME280;36361;38.954;-9.002;2022-07-09T00:32:25;100895.22;;;27.98;28.42
50434;BME280;36361;38.954;-9.002;2022-07-09T00:33:26;100898.03;;;27.98;27.27
50434;BME280;36361;38.954;-9.002;2022-07-09T00:34:27;100888.31;;;28.04;22.89
50434;BME280;36361;38.954;-9.002;2022-07-09T00:35:27;100899.19;;;28.15;26.77
50434;BME280;36361;38.954;-9.002;2022-07-09T00:36:28;100898.88;;;28.08;27.76
50434;BME280;36361;38.954;-9.002;2022-07-09T00:37:29;100893.13;;;28.30;27.03
50434;BME280;36361;38.954;-9.002;2022-07-09T00:38:29;100895.88;;;28.13;28.44
50434;BME280;36361;38.954;-9.002;2022-07-09T00:39:30;100898.22;;;28.19;25.20
50434;BME280;36361;38.954;-9.002;2022-07-09T00:40:31;100891.13;;;28.22;23.58
50434;BME280;36361;38.954;-9.002;2022-07-09T00:41:32;100895.88;;;28.13;27.32
50434;BME280;36361;38.954;-9.002;2022-07-09T00:42:32;100895.88;;;28.13;25.51
50434;BME280;36361;38.954;-9.002;2022-07-09T00:43:33;100894.59;;;28.10;26.21
50434;BME280;36361;38.954;-9.002;2022-07-09T00:44:34;100895.06;;;28.03;28.02
50434;BME280;36361;38.954;-9.002;2022-07-09T00:45:35;100896.88;;;27.99;26.93
50434;BME280;36361;38.954;-9.002;2022-07-09T00:46:36;100887.34;;;28.00;26.29
50434;BME280;36361;38.954;-9.002;2022-07-09T00:47:36;100900.84;;;27.98;27.40
50434;BME280;36361;38.954;-9.002;2022-07-09T00:48:37;100903.09;;;27.96;27.80
50434;BME280;36361;38.954;-9.002;2022-07-09T00:49:39;100895.22;;;27.98;23.88
50434;BME280;36361;38.954;-9.002;2022-07-09T00:50:42;100893.25;;;27.90;26.82
50434;BME280;36361;38.954;-9.002;2022-07-09T00:51:43;100893.88;;;27.87;28.02
50434;BME280;36361;38.954;-9.002;2022-07-09T00:52:44;100891.41;;;27.86;26.86
50434;BME280;36361;38.954;-9.002;2022-07-09T00:53:46;100891.09;;;27.87;27.76
50434;BME280;36361;38.954;-9.002;2022-07-09T00:54:46;100887.34;;;28.00;22.06
50434;BME280;36361;38.954;-9.002;2022-07-09T00:55:47;100892.41;;;28.07;25.71
50434;BME280;36361;38.954;-9.002;2022-07-09T00:56:48;100886.53;;;28.09;25.90
50434;BME280;36361;38.954;-9.002;2022-07-09T00:57:49;100891.28;;;27.99;27.99
50434;BME280;36361;38.954;-9.002;2022-07-09T00:58:53;100898.00;;;28.07;26.83
50434;BME280;36361;38.954;-9.002;2022-07-09T00:59:55;100898.84;;;27.99;26.94
50434;BME280;36361;38.954;-9.002;2022-07-09T01:01:00;100893.09;;;28.04;26.91
50434;BME280;36361;38.954;-9.002;2022-07-09T01:02:01;100897.03;;;28.03;27.75
50434;BME280;36361;38.954;-9.002;2022-07-09T01:03:02;100891.28;;;27.99;27.12
50434;BME280;36361;38.954;-9.002;2022-07-09T01:04:03;100892.91;;;27.92;28.60
50434;BME280;36361;38.954;-9.002;2022-07-09T01:05:04;100889.78;;;27.93;24.14
50434;BME280;36361;38.954;-9.002;2022-07-09T01:06:05;100888.78;;;27.98;24.90
50434;BME280;36361;38.954;-9.002;2022-07-09T01:07:06;100892.59;;;27.93;27.36
50434;BME280;36361;38.954;-9.002;2022-07-09T01:08:08;100889.28;;;27.91;27.26
50434;BME280;36361;38.954;-9.002;2022-07-09T01:09:09;100883.84;;;27.95;24.60
50434;BME280;36361;38.954;-9.002;2022-07-09T01:10:10;100888.47;;;27.99;25.42
50434;BME280;36361;38.954;-9.002;2022-07-09T01:11:10;100876.97;;;28.01;26.36
50434;BME280;36361;38.954;-9.002;2022-07-09T01:12:11;100881.22;;;28.07;26.23
50434;BME280;36361;38.954;-9.002;2022-07-09T01:13:12;100884.34;;;27.97;27.78
50434;BME280;36361;38.954;-9.002;2022-07-09T01:14:12;100878.28;;;28.03;27.50
50434;BME280;36361;38.954;-9.002;2022-07-09T01:15:16;100872.00;;;28.06;26.44
50434;BME280;36361;38.954;-9.002;2022-07-09T01:16:17;100877.31;;;28.08;27.56
50434;BME280;36361;38.954;-9.002;2022-07-09T01:17:18;100872.66;;;27.95;27.84
50434;BME280;36361;38.954;-9.002;2022-07-09T01:18:19;100881.75;;;28.00;26.78
50434;BME280;36361;38.954;-9.002;2022-07-09T01:19:19;100879.28;;;28.08;26.98
50434;BME280;36361;38.954;-9.002;2022-07-09T01:20:25;100874.19;;;28.10;25.31
50434;BME280;36361;38.954;-9.002;2022-07-09T01:21:26;100869.06;;;28.03;26.78
50434;BME280;36361;38.954;-9.002;2022-07-09T01:22:26;100874.66;;;28.03;26.28
50434;BME280;36361;38.954;-9.002;2022-07-09T01:23:27;100867.25;;;27.98;28.10
50434;BME280;36361;38.954;-9.002;2022-07-09T01:24:28;100858.88;;;27.98;27.83
50434;BME280;36361;38.954;-9.002;2022-07-09T01:25:39;100862.97;;;27.92;26.04
50434;BME280;36361;38.954;-9.002;2022-07-09T01:26:40;100856.22;;;27.85;28.36
50434;BME280;36361;38.954;-9.002;2022-07-09T01:27:41;100857.69;;;27.82;26.85
50434;BME280;36361;38.954;-9.002;2022-07-09T01:28:42;100861.47;;;27.86;27.64
50434;BME280;36361;38.954;-9.002;2022-07-09T01:29:42;100848.81;;;27.80;28.09
50434;BME280;36361;38.954;-9.002;2022-07-09T01:30:49;100853.06;;;27.86;22.71
50434;BME280;36361;38.954;-9.002;2022-07-09T01:31:49;100847.84;;;28.45;19.27
50434;BME280;36361;38.954;-9.002;2022-07-09T01:32:50;100849.81;;;28.53;19.96
50434;BME280;36361;38.954;-9.002;2022-07-09T01:33:51;100848.50;;;28.42;24.23
50434;BME280;36361;38.954;-9.002;2022-07-09T01:34:51;100842.25;;;28.28;26.49
50434;BME280;36361;38.954;-9.002;2022-07-09T01:35:52;100845.53;;;28.13;27.14
50434;BME280;36361;38.954;-9.002;2022-07-09T01:36:53;100844.84;;;28.07;27.22
50434;BME280;36361;38.954;-9.002;2022-07-09T01:37:53;100839.59;;;28.23;25.08
50434;BME280;36361;38.954;-9.002;2022-07-09T01:38:54;100834.91;;;28.79;19.01
50434;BME280;36361;38.954;-9.002;2022-07-09T01:39:55;100829.19;;;28.67;19.60
50434;BME280;36361;38.954;-9.002;2022-07-09T01:40:55;100837.25;;;28.59;25.25
50434;BME280;36361;38.954;-9.002;2022-07-09T01:41:57;100827.88;;;28.64;24.45
50434;BME280;36361;38.954;-9.002;2022-07-09T01:42:58;100839.94;;;28.47;25.59
50434;BME280;36361;38.954;-9.002;2022-07-09T01:43:59;100834.50;;;28.33;23.07
50434;BME280;36361;38.954;-9.002;2022-07-09T01:45:00;100836.00;;;28.31;26.38
50434;BME280;36361;38.954;-9.002;2022-07-09T01:46:00;100830.03;;;28.06;27.06
50434;BME280;36361;38.954;-9.002;2022-07-09T01:47:01;100833.53;;;28.29;25.81
50434;BME280;36361;38.954;-9.002;2022-07-09T01:48:05;100835.63;;;28.50;19.06
50434;BME280;36361;38.954;-9.002;2022-07-09T01:49:06;100839.75;;;28.44;21.25
50434;BME280;36361;38.954;-9.002;2022-07-09T01:50:09;100848.00;;;28.40;21.31
50434;BME280;36361;38.954;-9.002;2022-07-09T01:51:12;100846.50;;;28.25;26.45
50434;BME280;36361;38.954;-9.002;2022-07-09T01:52:13;100847.00;;;28.19;24.70
50434;BME280;36361;38.954;-9.002;2022-07-09T01:53:14;100854.06;;;28.25;24.00
50434;BME280;36361;38.954;-9.002;2022-07-09T01:54:15;100843.69;;;28.25;25.55
50434;BME280;36361;38.954;-9.002;2022-07-09T01:55:16;100850.78;;;28.23;26.72
50434;BME280;36361;38.954;-9.002;2022-07-09T01:56:25;100852.94;;;28.26;20.90
50434;BME280;36361;38.954;-9.002;2022-07-09T01:57:26;100855.41;;;28.53;19.50
50434;BME280;36361;38.954;-9.002;2022-07-09T01:58:27;100850.94;;;28.61;19.88
50434;BME280;36361;38.954;-9.002;2022-07-09T01:59:28;100855.06;;;28.64;19.81
50434;BME280;36361;38.954;-9.002;2022-07-09T02:00:29;100846.34;;;28.56;20.96
50434;BME280;36361;38.954;-9.002;2022-07-09T02:01:30;100849.81;;;28.53;20.21
50434;BME280;36361;38.954;-9.002;2022-07-09T02:02:30;100849.13;;;28.56;20.29
50434;BME280;36361;38.954;-9.002;2022-07-09T02:03:31;100842.22;;;28.63;19.94
50434;BME280;36361;38.954;-9.002;2022-07-09T02:04:32;100842.38;;;28.57;21.26
50434;BME280;36361;38.954;-9.002;2022-07-09T02:05:33;100844.38;;;28.40;21.05
50434;BME280;36361;38.954;-9.002;2022-07-09T02:06:33;100847.00;;;28.27;21.14
50434;BME280;36361;38.954;-9.002;2022-07-09T02:07:35;100843.41;;;28.01;21.60
50434;BME280;36361;38.954;-9.002;2022-07-09T02:08:35;100846.19;;;28.10;21.52
50434;BME280;36361;38.954;-9.002;2022-07-09T02:09:37;100840.25;;;28.20;21.38
50434;BME280;36361;38.954;-9.002;2022-07-09T02:10:37;100845.38;;;28.00;21.96
50434;BME280;36361;38.954;-9.002;2022-07-09T02:11:38;100846.66;;;27.94;21.93
50434;BME280;36361;38.954;-9.002;2022-07-09T02:12:39;100843.84;;;27.77;21.85
50434;BME280;36361;38.954;-9.002;2022-07-09T02:13:40;100840.00;;;27.56;22.47
50434;BME280;36361;38.954;-9.002;2022-07-09T02:14:41;100844.09;;;27.49;22.86
50434;BME280;36361;38.954;-9.002;2022-07-09T02:15:42;100847.69;;;27.41;22.92
50434;BME280;36361;38.954;-9.002;2022-07-09T02:16:43;100851.00;;;27.43;22.41
50434;BME280;36361;38.954;-9.002;2022-07-09T02:17:44;100846.41;;;27.47;22.51
50434;BME280;36361;38.954;-9.002;2022-07-09T02:18:44;100840.03;;;27.64;22.42
50434;BME280;36361;38.954;-9.002;2022-07-09T02:19:45;100845.50;;;27.87;21.90
50434;BME280;36361;38.954;-9.002;2022-07-09T02:20:46;100850.28;;;27.29;23.30
50434;BME280;36361;38.954;-9.002;2022-07-09T02:21:47;100846.72;;;27.37;23.08
50434;BME280;36361;38.954;-9.002;2022-07-09T02:22:48;100848.13;;;27.17;23.33
50434;BME280;36361;38.954;-9.002;2022-07-09T02:23:48;100855.66;;;27.08;23.01
50434;BME280;36361;38.954;-9.002;2022-07-09T02:24:49;100846.34;;;27.30;22.66
50434;BME280;36361;38.954;-9.002;2022-07-09T02:25:50;100853.19;;;26.84;23.35
50434;BME280;36361;38.954;-9.002;2022-07-09T02:26:50;100848.75;;;26.83;23.35
50434;BME280;36361;38.954;-9.002;2022-07-09T02:27:51;100853.06;;;26.89;23.11
50434;BME280;36361;38.954;-9.002;2022-07-09T02:28:51;100846.44;;;26.85;23.17
50434;BME280;36361;38.954;-9.002;2022-07-09T02:29:52;100844.72;;;26.98;23.07
50434;BME280;36361;38.954;-9.002;2022-07-09T02:30:53;100841.34;;;27.10;22.68
50434;BME280;36361;38.954;-9.002;2022-07-09T02:31:55;100848.28;;;27.21;22.91
50434;BME280;36361;38.954;-9.002;2022-07-09T02:32:57;100844.56;;;27.43;22.63
50434;BME280;36361;38.954;-9.002;2022-07-09T02:33:58;100849.31;;;27.34;22.64
50434;BME280;36361;38.954;-9.002;2022-07-09T02:34:59;100849.47;;;27.29;22.44
50434;BME280;36361;38.954;-9.002;2022-07-09T02:35:59;100855.75;;;27.43;22.30
50434;BME280;36361;38.954;-9.002;2022-07-09T02:37:00;100840.00;;;27.47;22.45
50434;BME280;36361;38.954;-9.002;2022-07-09T02:38:01;100836.88;;;27.48;22.39
50434;BME280;36361;38.954;-9.002;2022-07-09T02:39:04;100839.03;;;27.60;21.84
50434;BME280;36361;38.954;-9.002;2022-07-09T02:40:06;100835.56;;;27.55;21.59
50434;BME280;36361;38.954;-9.002;2022-07-09T02:41:10;100834.41;;;27.56;21.55
50434;BME280;36361;38.954;-9.002;2022-07-09T02:42:11;100831.97;;;27.63;21.53
50434;BME280;36361;38.954;-9.002;2022-07-09T02:43:11;100834.41;;;27.56;21.85
50434;BME280;36361;38.954;-9.002;2022-07-09T02:44:12;100842.09;;;27.41;21.68
50434;BME280;36361;38.954;-9.002;2022-07-09T02:45:13;100835.38;;;27.42;21.64
50434;BME280;36361;38.954;-9.002;2022-07-09T02:46:13;100835.88;;;27.44;21.49
50434;BME280;36361;38.954;-9.002;2022-07-09T02:47:14;100840.69;;;27.53;21.82
50434;BME280;36361;38.954;-9.002;2022-07-09T02:48:15;100834.91;;;27.58;21.58
50434;BME280;36361;38.954;-9.002;2022-07-09T02:49:19;100831.84;;;27.76;21.57
50434;BME280;36361;38.954;-9.002;2022-07-09T02:50:21;100839.75;;;27.74;21.41
50434;BME280;36361;38.954;-9.002;2022-07-09T02:51:22;100839.59;;;27.88;21.46
50434;BME280;36361;38.954;-9.002;2022-07-09T02:52:32;100834.84;;;27.80;21.24
50434;BME280;36361;38.954;-9.002;2022-07-09T02:53:32;100834.31;;;27.78;21.37
50434;BME280;36361;38.954;-9.002;2022-07-09T02:54:33;100842.22;;;27.93;21.45
50434;BME280;36361;38.954;-9.002;2022-07-09T02:55:34;100840.59;;;27.92;21.46
50434;BME280;36361;38.954;-9.002;2022-07-09T02:56:35;100831.53;;;27.87;21.65
50434;BME280;36361;38.954;-9.002;2022-07-09T02:57:36;100837.78;;;27.84;21.39
50434;BME280;36361;38.954;-9.002;2022-07-09T02:58:37;100839.06;;;27.69;21.59
50434;BME280;36361;38.954;-9.002;2022-07-09T02:59:37;100835.06;;;27.44;21.84
50434;BME280;36361;38.954;-9.002;2022-07-09T03:00:39;100843.53;;;26.90;22.65
50434;BME280;36361;38.954;-9.002;2022-07-09T03:01:40;100844.97;;;26.88;22.68
50434;BME280;36361;38.954;-9.002;2022-07-09T03:02:40;100841.19;;;26.84;22.70
50434;BME280;36361;38.954;-9.002;2022-07-09T03:03:41;100845.59;;;26.76;22.62
50434;BME280;36361;38.954;-9.002;2022-07-09T03:04:42;100845.84;;;26.88;22.79
50434;BME280;36361;38.954;-9.002;2022-07-09T03:05:42;100844.25;;;26.74;22.96
50434;BME280;36361;38.954;-9.002;2022-07-09T03:06:43;100839.50;;;26.74;23.27
50434;BME280;36361;38.954;-9.002;2022-07-09T03:07:44;100841.91;;;26.89;23.20
50434;BME280;36361;38.954;-9.002;2022-07-09T03:08:44;100845.91;;;27.06;23.28
50434;BME280;36361;38.954;-9.002;2022-07-09T03:09:45;100846.28;;;27.13;23.08
50434;BME280;36361;38.954;-9.002;2022-07-09T03:10:46;100841.13;;;26.98;23.39
50434;BME280;36361;38.954;-9.002;2022-07-09T03:11:46;100840.59;;;26.96;23.81
50434;BME280;36361;38.954;-9.002;2022-07-09T03:12:47;100845.69;;;26.93;23.74
50434;BME280;36361;38.954;-9.002;2022-07-09T03:13:48;100835.28;;;26.54;23.97
50434;BME280;36361;38.954;-9.002;2022-07-09T03:14:48;100847.13;;;26.60;24.20
50434;BME280;36361;38.954;-9.002;2022-07-09T03:15:49;100848.16;;;26.64;24.13
50434;BME280;36361;38.954;-9.002;2022-07-09T03:16:50;100841.69;;;26.55;24.28
50434;BME280;36361;38.954;-9.002;2022-07-09T03:17:51;100834.84;;;26.39;24.62
50434;BME280;36361;38.954;-9.002;2022-07-09T03:18:51;100843.00;;;26.35;24.69
50434;BME280;36361;38.954;-9.002;2022-07-09T03:19:52;100837.53;;;26.30;24.62
50434;BME280;36361;38.954;-9.002;2022-07-09T03:20:53;100842.66;;;26.14;25.03
50434;BME280;36361;38.954;-9.002;2022-07-09T03:21:54;100841.28;;;26.25;25.19
50434;BME280;36361;38.954;-9.002;2022-07-09T03:22:54;100845.16;;;26.60;24.57
50434;BME280;36361;38.954;-9.002;2022-07-09T03:23:55;100844.47;;;26.55;24.79
50434;BME280;36361;38.954;-9.002;2022-07-09T03:24:56;100839.66;;;26.78;24.84
50434;BME280;36361;38.954;-9.002;2022-07-09T03:25:57;100836.09;;;26.55;25.08
50434;BME280;36361;38.954;-9.002;2022-07-09T03:26:58;100840.41;;;26.16;25.54
50434;BME280;36361;38.954;-9.002;2022-07-09T03:27:58;100841.34;;;25.75;25.79
50434;BME280;36361;38.954;-9.002;2022-07-09T03:28:59;100837.81;;;25.84;25.74
50434;BME280;36361;38.954;-9.002;2022-07-09T03:30:00;100833.38;;;25.83;25.47
50434;BME280;36361;38.954;-9.002;2022-07-09T03:31:01;100835.53;;;25.86;25.96
50434;BME280;36361;38.954;-9.002;2022-07-09T03:32:02;100836.72;;;26.07;25.46
50434;BME280;36361;38.954;-9.002;2022-07-09T03:33:04;100838.38;;;26.08;25.13
50434;BME280;36361;38.954;-9.002;2022-07-09T03:34:04;100841.91;;;26.00;25.48
50434;BME280;36361;38.954;-9.002;2022-07-09T03:35:06;100843.53;;;26.01;26.01
50434;BME280;36361;38.954;-9.002;2022-07-09T03:36:07;100840.41;;;26.16;25.70
50434;BME280;36361;38.954;-9.002;2022-07-09T03:37:10;100841.56;;;26.38;25.37
50434;BME280;36361;38.954;-9.002;2022-07-09T03:38:10;100838.03;;;26.32;25.52
50434;BME280;36361;38.954;-9.002;2022-07-09T03:39:11;100843.31;;;26.33;25.15
50434;BME280;36361;38.954;-9.002;2022-07-09T03:40:12;100832.66;;;26.35;25.36
50434;BME280;36361;38.954;-9.002;2022-07-09T03:41:13;100839.75;;;26.19;25.43
50434;BME280;36361;38.954;-9.002;2022-07-09T03:42:14;100844.25;;;26.43;25.46
50434;BME280;36361;38.954;-9.002;2022-07-09T03:43:14;100842.78;;;26.31;25.30
50434;BME280;36361;38.954;-9.002;2022-07-09T03:44:15;100840.47;;;26.47;25.24
50434;BME280;36361;38.954;-9.002;2022-07-09T03:45:16;100846.44;;;26.54;25.30
50434;BME280;36361;38.954;-9.002;2022-07-09T03:46:17;100843.59;;;26.46;25.52
50434;BME280;36361;38.954;-9.002;2022-07-09T03:47:17;100845.75;;;26.49;25.16
50434;BME280;36361;38.954;-9.002;2022-07-09T03:48:18;100843.63;;;26.32;25.13
50434;BME280;36361;38.954;-9.002;2022-07-09T03:49:19;100839.25;;;26.17;24.96
50434;BME280;36361;38.954;-9.002;2022-07-09T03:50:20;100844.69;;;26.22;25.05
50434;BME280;36361;38.954;-9.002;2022-07-09T03:51:22;100846.34;;;26.23;25.01
50434;BME280;36361;38.954;-9.002;2022-07-09T03:52:22;100841.59;;;26.24;25.18
50434;BME280;36361;38.954;-9.002;2022-07-09T03:53:23;100847.88;;;26.29;25.19
50434;BME280;36361;38.954;-9.002;2022-07-09T03:54:24;100841.78;;;26.27;25.13
50434;BME280;36361;38.954;-9.002;2022-07-09T03:55:25;100844.91;;;26.26;25.46
50434;BME280;36361;38.954;-9.002;2022-07-09T03:56:26;100834.31;;;26.36;25.13
50434;BME280;36361;38.954;-9.002;2022-07-09T03:57:27;100839.81;;;26.28;25.44
50434;BME280;36361;38.954;-9.002;2022-07-09T03:58:27;100845.22;;;26.24;25.28
50434;BME280;36361;38.954;-9.002;2022-07-09T03:59:28;100848.53;;;26.26;25.60
50434;BME280;36361;38.954;-9.002;2022-07-09T04:00:29;100836.81;;;26.38;25.43
50434;BME280;36361;38.954;-9.002;2022-07-09T04:01:29;100844.44;;;26.32;25.48
50434;BME280;36361;38.954;-9.002;2022-07-09T04:02:30;100847.88;;;26.29;25.68
50434;BME280;36361;38.954;-9.002;2022-07-09T04:03:31;100845.34;;;26.42;25.53
50434;BME280;36361;38.954;-9.002;2022-07-09T04:04:31;100836.59;;;26.34;25.57
50434;BME280;36361;38.954;-9.002;2022-07-09T04:05:32;100842.19;;;26.34;25.68
50434;BME280;36361;38.954;-9.002;2022-07-09T04:06:33;100837.88;;;26.51;25.44
50434;BME280;36361;38.954;-9.002;2022-07-09T04:07:34;100844.41;;;26.46;25.67
50434;BME280;36361;38.954;-9.002;2022-07-09T04:08:34;100833.59;;;26.45;25.78
50434;BME280;36361;38.954;-9.002;2022-07-09T04:09:36;100834.09;;;26.33;25.95
50434;BME280;36361;38.954;-9.002;2022-07-09T04:10:36;100835.72;;;26.48;25.79
50434;BME280;36361;38.954;-9.002;2022-07-09T04:11:37;100834.09;;;26.47;25.76
50434;BME280;36361;38.954;-9.002;2022-07-09T04:12:38;100828.94;;;26.40;25.76
50434;BME280;36361;38.954;-9.002;2022-07-09T04:13:38;100828.63;;;26.42;26.00
50434;BME280;36361;38.954;-9.002;2022-07-09T04:14:39;100837.75;;;26.56;25.97
50434;BME280;36361;38.954;-9.002;2022-07-09T04:15:40;100832.06;;;26.70;25.54
50434;BME280;36361;38.954;-9.002;2022-07-09T04:16:41;100836.34;;;26.67;25.61
50434;BME280;36361;38.954;-9.002;2022-07-09T04:17:41;100835.91;;;26.51;26.28
50434;BME280;36361;38.954;-9.002;2022-07-09T04:18:42;100830.78;;;26.45;25.93
50434;BME280;36361;38.954;-9.002;2022-07-09T04:19:44;100832.53;;;26.63;25.95
50434;BME280;36361;38.954;-9.002;2022-07-09T04:20:44;100838.56;;;26.56;25.92
50434;BME280;36361;38.954;-9.002;2022-07-09T04:21:45;100839.00;;;26.50;25.96
50434;BME280;36361;38.954;-9.002;2022-07-09T04:22:46;100843.34;;;26.56;26.08
50434;BME280;36361;38.954;-9.002;2022-07-09T04:23:46;100846.72;;;26.75;25.84
50434;BME280;36361;38.954;-9.002;2022-07-09T04:24:47;100835.66;;;26.61;25.75
50434;BME280;36361;38.954;-9.002;2022-07-09T04:25:47;100839.66;;;26.47;26.37
50434;BME280;36361;38.954;-9.002;2022-07-09T04:26:51;100838.50;;;26.25;26.39
50434;BME280;36361;38.954;-9.002;2022-07-09T04:27:51;100841.78;;;26.27;26.19
50434;BME280;36361;38.954;-9.002;2022-07-09T04:28:52;100849.94;;;26.38;26.32
50434;BME280;36361;38.954;-9.002;2022-07-09T04:29:53;100848.06;;;26.33;26.46
50434;BME280;36361;38.954;-9.002;2022-07-09T04:30:55;100845.25;;;26.47;26.67
50434;BME280;36361;38.954;-9.002;2022-07-09T04:31:56;100842.94;;;26.26;26.46
50434;BME280;36361;38.954;-9.002;2022-07-09T04:32:57;100845.25;;;26.33;26.77
50434;BME280;36361;38.954;-9.002;2022-07-09T04:33:57;100842.06;;;26.40;26.82
50434;BME280;36361;38.954;-9.002;2022-07-09T04:34:58;100847.66;;;26.62;26.19
50434;BME280;36361;38.954;-9.002;2022-07-09T04:35:59;100842.50;;;26.55;26.16
50434;BME280;36361;38.954;-9.002;2022-07-09T04:37:00;100844.47;;;26.55;26.37
50434;BME280;36361;38.954;-9.002;2022-07-09T04:38:01;100844.84;;;26.40;26.34
50434;BME280;36361;38.954;-9.002;2022-07-09T04:39:02;100841.69;;;26.55;26.37
50434;BME280;36361;38.954;-9.002;2022-07-09T04:40:04;100850.94;;;26.64;26.08
50434;BME280;36361;38.954;-9.002;2022-07-09T04:41:05;100846.06;;;26.47;26.69
50434;BME280;36361;38.954;-9.002;2022-07-09T04:42:06;100841.88;;;26.36;26.74
50434;BME280;36361;38.954;-9.002;2022-07-09T04:43:07;100843.81;;;26.35;26.81
50434;BME280;36361;38.954;-9.002;2022-07-09T04:44:08;100848.78;;;26.16;27.26
50434;BME280;36361;38.954;-9.002;2022-07-09T04:45:11;100849.66;;;26.25;27.31
50434;BME280;36361;38.954;-9.002;2022-07-09T04:46:11;100854.13;;;26.49;26.89
50434;BME280;36361;38.954;-9.002;2022-07-09T04:47:12;100856.69;;;26.68;26.46
50434;BME280;36361;38.954;-9.002;2022-07-09T04:48:13;100858.63;;;26.58;27.01
50434;BME280;36361;38.954;-9.002;2022-07-09T04:49:14;100854.22;;;26.21;27.31
50434;BME280;36361;38.954;-9.002;2022-07-09T04:50:15;100854.69;;;26.01;27.71
50434;BME280;36361;38.954;-9.002;2022-07-09T04:51:15;100852.25;;;25.86;27.84
50434;BME280;36361;38.954;-9.002;2022-07-09T04:52:16;100853.63;;;25.88;27.64
50434;BME280;36361;38.954;-9.002;2022-07-09T04:53:19;100853.28;;;25.90;27.81
50434;BME280;36361;38.954;-9.002;2022-07-09T04:54:20;100852.84;;;25.96;27.94
50434;BME280;36361;38.954;-9.002;2022-07-09T04:55:21;100855.72;;;26.05;27.76
50434;BME280;36361;38.954;-9.002;2022-07-09T04:56:22;100853.06;;;26.00;27.62
50434;BME280;36361;38.954;-9.002;2022-07-09T04:57:23;100854.94;;;25.91;28.08
50434;BME280;36361;38.954;-9.002;2022-07-09T04:58:23;100857.59;;;25.96;27.66
50434;BME280;36361;38.954;-9.002;2022-07-09T04:59:24;100866.28;;;25.94;27.82
50434;BME280;36361;38.954;-9.002;2022-07-09T05:00:25;100856.59;;;25.92;27.92
50434;BME280;36361;38.954;-9.002;2022-07-09T05:01:26;100856.25;;;25.93;27.97
50434;BME280;36361;38.954;-9.002;2022-07-09T05:02:27;100855.94;;;25.95;27.80
50434;BME280;36361;38.954;-9.002;2022-07-09T05:03:28;100859.25;;;25.97;27.68
50434;BME280;36361;38.954;-9.002;2022-07-09T05:04:28;100864.59;;;26.07;27.67
50434;BME280;36361;38.954;-9.002;2022-07-09T05:05:30;100861.53;;;25.95;28.06
50434;BME280;36361;38.954;-9.002;2022-07-09T05:06:31;100864.44;;;25.90;28.01
50434;BME280;36361;38.954;-9.002;2022-07-09T05:07:34;100864.59;;;26.07;28.06
50434;BME280;36361;38.954;-9.002;2022-07-09T05:08:34;100859.03;;;26.07;28.05
50434;BME280;36361;38.954;-9.002;2022-07-09T05:09:35;100856.84;;;26.04;27.87
50434;BME280;36361;38.954;-9.002;2022-07-09T05:10:36;100860.91;;;25.98;28.22
50434;BME280;36361;38.954;-9.002;2022-07-09T05:11:37;100865.97;;;25.96;28.24
50434;BME280;36361;38.954;-9.002;2022-07-09T05:12:37;100862.75;;;26.02;28.34
50434;BME280;36361;38.954;-9.002;2022-07-09T05:13:39;100860.91;;;25.98;28.35
50434;BME280;36361;38.954;-9.002;2022-07-09T05:14:54;100861.81;;;26.07;28.31
50434;BME280;36361;38.954;-9.002;2022-07-09T05:16:01;100864.59;;;26.07;28.53